sensor_id;sensor_type;location;lat;lon;timestamp;pressure;altitude;pressure_sealevel;temperature;humidity
58975;BME280;44751;52.236;5.178;2023-05-20T08:53:55;102295.44;;;19.61;82.19
58975;BME280;44751;52.236;5.178;2023-05-20T08:56:32;102295.16;;;20.05;82.67
58975;BME280;44751;52.236;5.178;2023-05-20T08:58:58;102284.25;;;20.45;80.20
58975;BME280;44751;52.236;5.178;2023-05-20T09:01:25;102278.53;;;20.13;78.45
58975;BME280;44751;52.236;5.178;2023-05-20T09:03:52;102277.91;;;20.18;79.16
58975;BME280;44751;52.236;5.178;2023-05-20T09:06:24;102277.88;;;20.72;78.87
58975;BME280;44751;52.236;5.178;2023-05-20T09:08:50;102272.00;;;20.61;77.01
58975;BME280;44751;52.236;5.178;2023-05-20T09:11:18;102268.59;;;20.93;74.72
58975;BME280;44751;52.236;5.178;2023-05-20T09:13:46;102276.81;;;21.00;74.71
58975;BME280;44751;52.236;5.178;2023-05-20T09:16:13;102281.91;;;20.76;75.06
58975;BME280;44751;52.236;5.178;2023-05-20T09:18:54;102280.66;;;20.92;74.46
58975;BME280;44751;52.236;5.178;2023-05-20T09:21:27;102268.63;;;20.73;73.03
58975;BME280;44751;52.236;5.178;2023-05-20T09:23:54;102271.94;;;21.09;71.37
58975;BME280;44751;52.236;5.178;2023-05-20T09:26:28;102273.22;;;21.13;70.19
58975;BME280;44751;52.236;5.178;2023-05-20T09:28:56;102270.72;;;21.50;70.19
58975;BME280;44751;52.236;5.178;2023-05-20T09:31:31;102275.09;;;21.65;69.39
58975;BME280;44751;52.236;5.178;2023-05-20T09:34:02;102267.22;;;21.29;68.95
58975;BME280;44751;52.236;5.178;2023-05-20T09:36:29;102262.50;;;21.57;68.36
58975;BME280;44751;52.236;5.178;2023-05-20T09:38:59;102265.03;;;21.91;67.14
58975;BME280;44751;52.236;5.178;2023-05-20T09:41:32;102254.31;;;21.89;66.68
58975;BME280;44751;52.236;5.178;2023-05-20T09:43:59;102261.09;;;21.80;66.62
58975;BME280;44751;52.236;5.178;2023-05-20T09:46:27;102251.72;;;21.56;66.52
58975;BME280;44751;52.236;5.178;2023-05-20T09:48:54;102249.50;;;22.36;67.04
58975;BME280;44751;52.236;5.178;2023-05-20T09:51:22;102250.16;;;23.01;65.08
58975;BME280;44751;52.236;5.178;2023-05-20T09:53:50;102244.28;;;22.02;63.34
58975;BME280;44751;52.236;5.178;2023-05-20T09:56:19;102240.03;;;22.31;64.34
58975;BME280;44751;52.236;5.178;2023-05-20T09:58:48;102228.47;;;22.23;64.64
58975;BME280;44751;52.236;5.178;2023-05-20T10:01:15;102247.88;;;22.79;64.59
58975;BME280;44751;52.236;5.178;2023-05-20T10:03:43;102230.22;;;22.68;63.91
58975;BME280;44751;52.236;5.178;2023-05-20T10:06:17;102234.63;;;22.69;62.82
58975;BME280;44751;52.236;5.178;2023-05-20T10:15:19;102237.81;;;22.15;62.10
58975;BME280;44751;52.236;5.178;2023-05-20T10:18:08;102221.53;;;22.13;61.58
58975;BME280;44751;52.236;5.178;2023-05-20T10:20:46;102226.59;;;22.16;62.16
58975;BME280;44751;52.236;5.178;2023-05-20T10:23:26;102220.31;;;21.84;61.43
58975;BME280;44751;52.236;5.178;2023-05-20T10:25:55;102216.09;;;22.06;60.93
58975;BME280;44751;52.236;5.178;2023-05-20T10:28:36;102212.75;;;22.55;61.68
58975;BME280;44751;52.236;5.178;2023-05-20T10:31:15;102214.72;;;23.23;59.38
58975;BME280;44751;52.236;5.178;2023-05-20T10:33:47;102208.25;;;22.61;59.58
58975;BME280;44751;52.236;5.178;2023-05-20T10:36:27;102209.00;;;22.24;59.19
58975;BME280;44751;52.236;5.178;2023-05-20T10:38:57;102215.59;;;21.91;58.93
58975;BME280;44751;52.236;5.178;2023-05-20T10:41:25;102195.56;;;22.35;60.11
58975;BME280;44751;52.236;5.178;2023-05-20T10:43:59;102196.09;;;21.74;60.37
58975;BME280;44751;52.236;5.178;2023-05-20T10:46:27;102198.13;;;21.78;61.41
58975;BME280;44751;52.236;5.178;2023-05-20T10:48:56;102184.19;;;21.80;61.32
58975;BME280;44751;52.236;5.178;2023-05-20T10:51:24;102183.69;;;21.58;62.61
58975;BME280;44751;52.236;5.178;2023-05-20T10:53:53;102181.59;;;22.17;62.04
58975;BME280;44751;52.236;5.178;2023-05-20T10:56:22;102184.94;;;22.19;60.49
58975;BME280;44751;52.236;5.178;2023-05-20T10:58:50;102177.69;;;21.67;61.54
58975;BME280;44751;52.236;5.178;2023-05-20T11:01:17;102177.41;;;22.08;61.43
58975;BME280;44751;52.236;5.178;2023-05-20T11:03:48;102175.06;;;21.86;61.13
58975;BME280;44751;52.236;5.178;2023-05-20T11:06:16;102171.19;;;21.94;60.92
58975;BME280;44751;52.236;5.178;2023-05-20T11:08:44;102174.66;;;22.34;60.97
58975;BME280;44751;52.236;5.178;2023-05-20T11:11:12;102155.69;;;21.74;62.09
58975;BME280;44751;52.236;5.178;2023-05-20T11:13:41;102160.38;;;21.99;61.99
58975;BME280;44751;52.236;5.178;2023-05-20T11:16:08;102161.41;;;22.24;61.63
58975;BME280;44751;52.236;5.178;2023-05-20T11:18:35;102152.75;;;21.69;60.92
58975;BME280;44751;52.236;5.178;2023-05-20T11:21:02;102155.03;;;21.47;60.92
58975;BME280;44751;52.236;5.178;2023-05-20T11:23:31;102158.06;;;21.32;62.18
58975;BME280;44751;52.236;5.178;2023-05-20T11:26:01;102162.25;;;20.95;63.50
58975;BME280;44751;52.236;5.178;2023-05-20T11:28:29;102169.69;;;21.66;61.62
58975;BME280;44751;52.236;5.178;2023-05-20T11:30:58;102166.63;;;21.49;61.09
58975;BME280;44751;52.236;5.178;2023-05-20T11:33:25;102153.00;;;20.83;62.61
58975;BME280;44751;52.236;5.178;2023-05-20T11:35:55;102154.69;;;20.77;62.98
58975;BME280;44751;52.236;5.178;2023-05-20T11:38:22;102147.16;;;20.59;63.09
58975;BME280;44751;52.236;5.178;2023-05-20T11:40:56;102151.72;;;20.92;64.08
58975;BME280;44751;52.236;5.178;2023-05-20T11:43:25;102149.44;;;21.60;62.34
58975;BME280;44751;52.236;5.178;2023-05-20T11:45:58;102156.44;;;21.56;61.61
58975;BME280;44751;52.236;5.178;2023-05-20T11:48:25;102153.63;;;21.70;62.84
58975;BME280;44751;52.236;5.178;2023-05-20T11:50:55;102141.31;;;21.79;61.74
58975;BME280;44751;52.236;5.178;2023-05-20T11:53:28;102154.03;;;21.66;61.77
58975;BME280;44751;52.236;5.178;2023-05-20T11:56:00;102139.00;;;21.76;62.68
58975;BME280;44751;52.236;5.178;2023-05-20T11:58:33;102126.28;;;21.82;62.08
58975;BME280;44751;52.236;5.178;2023-05-20T12:01:00;102146.44;;;22.19;61.18
58975;BME280;44751;52.236;5.178;2023-05-20T12:03:30;102126.50;;;22.68;60.09
58975;BME280;44751;52.236;5.178;2023-05-20T12:06:02;102120.63;;;22.21;62.75
58975;BME280;44751;52.236;5.178;2023-05-20T12:08:31;102127.28;;;21.87;62.65
58975;BME280;44751;52.236;5.178;2023-05-20T13:51:52;102053.97;;;22.06;61.26
58975;BME280;44751;52.236;5.178;2023-05-20T14:39:37;102010.06;;;22.00;64.46
58975;BME280;44751;52.236;5.178;2023-05-20T14:42:54;102011.22;;;22.11;62.77
58975;BME280;44751;52.236;5.178;2023-05-20T14:45:23;102004.63;;;21.74;63.17
58975;BME280;44751;52.236;5.178;2023-05-20T14:47:59;102018.47;;;22.05;63.61
58975;BME280;44751;52.236;5.178;2023-05-20T14:50:53;101998.97;;;21.69;62.65
58975;BME280;44751;52.236;5.178;2023-05-20T14:53:24;102008.03;;;21.70;63.04
58975;BME280;44751;52.236;5.178;2023-05-20T14:56:02;101993.97;;;21.59;62.48
58975;BME280;44751;52.236;5.178;2023-05-20T14:58:31;101983.78;;;21.41;62.88
58975;BME280;44751;52.236;5.178;2023-05-20T15:01:01;101980.22;;;22.22;63.96
58975;BME280;44751;52.236;5.178;2023-05-20T15:03:28;101983.78;;;22.41;62.54
58975;BME280;44751;52.236;5.178;2023-05-20T15:05:56;101979.97;;;22.42;60.74
58975;BME280;44751;52.236;5.178;2023-05-20T15:08:28;101983.44;;;21.82;62.11
58975;BME280;44751;52.236;5.178;2023-05-20T15:10:57;101983.22;;;21.58;64.08
58975;BME280;44751;52.236;5.178;2023-05-20T15:13:24;101976.28;;;21.80;63.75
58975;BME280;44751;52.236;5.178;2023-05-20T15:15:50;101976.81;;;21.89;63.72
58975;BME280;44751;52.236;5.178;2023-05-20T15:18:17;101974.09;;;21.64;63.74
58975;BME280;44751;52.236;5.178;2023-05-20T15:20:43;101972.16;;;21.64;63.40
58975;BME280;44751;52.236;5.178;2023-05-20T15:23:11;101976.47;;;21.35;64.08
58975;BME280;44751;52.236;5.178;2023-05-20T15:25:43;101967.16;;;21.36;64.55
58975;BME280;44751;52.236;5.178;2023-05-20T15:28:10;101981.09;;;21.60;64.08
58975;BME280;44751;52.236;5.178;2023-05-20T15:30:36;101968.41;;;21.40;63.53
58975;BME280;44751;52.236;5.178;2023-05-20T15:33:05;101976.34;;;21.48;64.49
58975;BME280;44751;52.236;5.178;2023-05-20T15:35:32;101971.59;;;21.37;64.17
58975;BME280;44751;52.236;5.178;2023-05-20T15:37:59;101971.78;;;21.17;64.85
58975;BME280;44751;52.236;5.178;2023-05-20T15:40:25;101976.50;;;21.02;66.38
58975;BME280;44751;52.236;5.178;2023-05-20T15:42:56;101969.25;;;20.76;65.84
58975;BME280;44751;52.236;5.178;2023-05-20T15:45:24;101963.50;;;20.91;65.60
58975;BME280;44751;52.236;5.178;2023-05-20T15:47:53;101957.03;;;20.72;65.32
58975;BME280;44751;52.236;5.178;2023-05-20T15:50:20;101951.81;;;20.70;66.42
58975;BME280;44751;52.236;5.178;2023-05-20T15:52:47;101954.09;;;20.73;66.37
58975;BME280;44751;52.236;5.178;2023-05-20T15:55:13;101959.41;;;20.68;66.17
58975;BME280;44751;52.236;5.178;2023-05-20T15:57:43;101950.03;;;20.50;67.50
58975;BME280;44751;52.236;5.178;2023-05-20T16:00:12;101954.81;;;20.55;68.42
58975;BME280;44751;52.236;5.178;2023-05-20T16:02:39;101958.03;;;20.52;67.56
58975;BME280;44751;52.236;5.178;2023-05-20T16:05:06;101952.41;;;20.33;69.22
58975;BME280;44751;52.236;5.178;2023-05-20T16:07:33;101940.72;;;20.51;68.43
58975;BME280;44751;52.236;5.178;2023-05-20T16:10:00;101938.91;;;20.38;68.53
58975;BME280;44751;52.236;5.178;2023-05-20T16:12:32;101945.53;;;20.24;67.73
58975;BME280;44751;52.236;5.178;2023-05-20T16:14:59;101944.69;;;20.17;68.65
58975;BME280;44751;52.236;5.178;2023-05-20T16:17:26;101933.53;;;20.11;68.30
58975;BME280;44751;52.236;5.178;2023-05-20T16:19:52;101935.03;;;20.14;69.15
58975;BME280;44751;52.236;5.178;2023-05-20T16:22:19;101929.53;;;20.14;69.41
58975;BME280;44751;52.236;5.178;2023-05-20T16:24:45;101935.66;;;20.09;68.66
58975;BME280;44751;52.236;5.178;2023-05-20T16:27:14;101941.13;;;20.09;68.23
58975;BME280;44751;52.236;5.178;2023-05-20T16:29:43;101934.19;;;20.07;68.27
58975;BME280;44751;52.236;5.178;2023-05-20T16:32:11;101930.00;;;19.97;68.25
58975;BME280;44751;52.236;5.178;2023-05-20T16:34:38;101926.41;;;19.97;69.00
58975;BME280;44751;52.236;5.178;2023-05-20T16:37:08;101927.31;;;19.77;68.73
58975;BME280;44751;52.236;5.178;2023-05-20T16:39:35;101914.66;;;19.83;68.80
58975;BME280;44751;52.236;5.178;2023-05-20T16:42:01;101916.72;;;19.94;68.50
58975;BME280;44751;52.236;5.178;2023-05-20T16:44:28;101919.03;;;20.04;69.25
58975;BME280;44751;52.236;5.178;2023-05-20T16:46:55;101927.38;;;20.23;68.92
58975;BME280;44751;52.236;5.178;2023-05-20T16:49:22;101921.84;;;20.30;68.32
58975;BME280;44751;52.236;5.178;2023-05-20T16:51:50;101922.81;;;20.03;68.99
58975;BME280;44751;52.236;5.178;2023-05-20T16:54:17;101918.13;;;20.17;68.30
58975;BME280;44751;52.236;5.178;2023-05-20T16:56:44;101917.94;;;20.12;68.48
58975;BME280;44751;52.236;5.178;2023-05-20T16:59:10;101912.94;;;20.02;68.26
58975;BME280;44751;52.236;5.178;2023-05-20T17:01:45;101915.03;;;19.93;69.03
58975;BME280;44751;52.236;5.178;2023-05-20T17:04:12;101934.13;;;20.20;68.79
58975;BME280;44751;52.236;5.178;2023-05-20T17:06:38;101924.28;;;20.12;69.14
58975;BME280;44751;52.236;5.178;2023-05-20T17:09:05;101932.06;;;20.16;69.16
58975;BME280;44751;52.236;5.178;2023-05-20T17:11:33;101924.16;;;20.33;68.84
58975;BME280;44751;52.236;5.178;2023-05-20T17:14:04;101917.06;;;20.25;69.10
58975;BME280;44751;52.236;5.178;2023-05-20T17:16:30;101927.97;;;20.32;68.84
58975;BME280;44751;52.236;5.178;2023-05-20T17:18:57;101919.66;;;20.06;69.14
58975;BME280;44751;52.236;5.178;2023-05-20T17:21:29;101915.84;;;20.07;68.83
58975;BME280;44751;52.236;5.178;2023-05-20T17:24:00;101925.97;;;20.07;68.91
58975;BME280;44751;52.236;5.178;2023-05-20T17:26:27;101926.63;;;20.02;68.77
58975;BME280;44751;52.236;5.178;2023-05-20T17:29:03;101915.97;;;19.73;68.52
58975;BME280;44751;52.236;5.178;2023-05-20T17:31:37;101918.00;;;19.85;68.67
58975;BME280;44751;52.236;5.178;2023-05-20T17:34:17;101923.66;;;19.97;69.92
58975;BME280;44751;52.236;5.178;2023-05-20T17:36:44;101922.00;;;19.89;69.61
58975;BME280;44751;52.236;5.178;2023-05-20T17:39:17;101928.97;;;19.85;69.85
58975;BME280;44751;52.236;5.178;2023-05-20T17:47:08;101933.63;;;19.71;69.99
58975;BME280;44751;52.236;5.178;2023-05-20T17:49:34;101920.19;;;19.69;70.18
58975;BME280;44751;52.236;5.178;2023-05-20T17:52:05;101935.78;;;19.62;69.74
58975;BME280;44751;52.236;5.178;2023-05-20T17:54:33;101936.81;;;19.61;69.58
58975;BME280;44751;52.236;5.178;2023-05-20T17:57:00;101932.00;;;19.50;70.14
58975;BME280;44751;52.236;5.178;2023-05-20T17:59:26;101935.56;;;19.57;69.97
58975;BME280;44751;52.236;5.178;2023-05-20T18:01:53;101951.81;;;19.38;70.20
58975;BME280;44751;52.236;5.178;2023-05-20T18:04:22;101943.16;;;19.34;70.22
58975;BME280;44751;52.236;5.178;2023-05-20T18:06:52;101953.28;;;19.27;69.51
58975;BME280;44751;52.236;5.178;2023-05-20T18:09:20;101954.34;;;19.40;70.57
58975;BME280;44751;52.236;5.178;2023-05-20T18:11:46;101954.09;;;19.34;70.43
58975;BME280;44751;52.236;5.178;2023-05-20T18:14:13;101957.88;;;19.40;70.28
58975;BME280;44751;52.236;5.178;2023-05-20T18:16:44;101959.81;;;19.33;70.46
58975;BME280;44751;52.236;5.178;2023-05-20T18:19:11;101954.53;;;19.25;70.39
58975;BME280;44751;52.236;5.178;2023-05-20T18:21:39;101970.13;;;19.17;71.38
58975;BME280;44751;52.236;5.178;2023-05-20T18:24:06;101969.25;;;19.30;71.37
58975;BME280;44751;52.236;5.178;2023-05-20T18:26:32;101968.00;;;19.13;72.31
58975;BME280;44751;52.236;5.178;2023-05-20T18:28:59;101971.31;;;19.01;72.10
58975;BME280;44751;52.236;5.178;2023-05-20T18:31:28;101966.53;;;19.10;72.38
58975;BME280;44751;52.236;5.178;2023-05-20T18:33:55;101970.25;;;18.95;73.49
58975;BME280;44751;52.236;5.178;2023-05-20T18:36:23;101965.84;;;18.88;73.43
58975;BME280;44751;52.236;5.178;2023-05-20T18:38:51;101970.66;;;18.86;73.74
58975;BME280;44751;52.236;5.178;2023-05-20T18:41:26;101966.47;;;18.83;75.38
58975;BME280;44751;52.236;5.178;2023-05-20T18:43:55;101965.84;;;18.81;74.79
58975;BME280;44751;52.236;5.178;2023-05-20T18:46:22;101966.44;;;18.69;74.73
58975;BME280;44751;52.236;5.178;2023-05-20T18:48:49;101961.38;;;18.60;75.62
58975;BME280;44751;52.236;5.178;2023-05-20T18:51:19;101966.44;;;18.63;75.46
58975;BME280;44751;52.236;5.178;2023-05-20T18:53:45;101967.25;;;18.63;75.91
58975;BME280;44751;52.236;5.178;2023-05-20T18:56:12;101974.38;;;18.57;75.90
58975;BME280;44751;52.236;5.178;2023-05-20T18:58:38;101961.56;;;18.58;75.90
58975;BME280;44751;52.236;5.178;2023-05-20T19:01:05;101961.53;;;18.44;76.79
58975;BME280;44751;52.236;5.178;2023-05-20T19:03:35;101963.25;;;18.52;76.41
58975;BME280;44751;52.236;5.178;2023-05-20T19:06:01;101960.72;;;18.51;76.93
58975;BME280;44751;52.236;5.178;2023-05-20T19:08:28;101962.63;;;18.50;77.17
58975;BME280;44751;52.236;5.178;2023-05-20T19:10:56;101954.81;;;18.40;77.68
58975;BME280;44751;52.236;5.178;2023-05-20T19:13:23;101968.84;;;18.30;77.71
58975;BME280;44751;52.236;5.178;2023-05-20T19:15:50;101964.88;;;18.40;77.79
58975;BME280;44751;52.236;5.178;2023-05-20T19:18:19;101964.22;;;18.38;78.29
58975;BME280;44751;52.236;5.178;2023-05-20T19:20:46;101969.03;;;18.29;78.69
58975;BME280;44751;52.236;5.178;2023-05-20T19:23:13;101968.00;;;18.37;78.45
58975;BME280;44751;52.236;5.178;2023-05-20T19:25:40;101983.72;;;18.28;79.05
58975;BME280;44751;52.236;5.178;2023-05-20T19:28:07;101969.66;;;18.24;79.59
58975;BME280;44751;52.236;5.178;2023-05-20T19:30:41;101968.56;;;18.18;79.43
58975;BME280;44751;52.236;5.178;2023-05-20T19:33:08;101971.50;;;18.17;80.12
58975;BME280;44751;52.236;5.178;2023-05-20T19:35:35;101976.69;;;18.05;80.51
58975;BME280;44751;52.236;5.178;2023-05-20T19:38:02;101978.81;;;18.10;81.30
58975;BME280;44751;52.236;5.178;2023-05-20T19:40:31;101971.69;;;18.15;81.59
58975;BME280;44751;52.236;5.178;2023-05-20T19:43:00;101981.16;;;18.13;83.53
58975;BME280;44751;52.236;5.178;2023-05-20T19:45:29;101978.13;;;18.01;85.04
58975;BME280;44751;52.236;5.178;2023-05-20T19:47:56;101981.41;;;17.89;87.44
58975;BME280;44751;52.236;5.178;2023-05-20T19:50:33;101982.50;;;17.95;87.39
58975;BME280;44751;52.236;5.178;2023-05-20T19:53:02;101982.63;;;17.80;89.25
58975;BME280;44751;52.236;5.178;2023-05-20T19:55:32;101988.28;;;17.78;89.55
58975;BME280;44751;52.236;5.178;2023-05-20T19:57:58;101986.50;;;17.64;88.45
58975;BME280;44751;52.236;5.178;2023-05-20T20:00:28;101994.25;;;17.60;87.63
58975;BME280;44751;52.236;5.178;2023-05-20T20:02:55;101993.59;;;17.58;88.46
58975;BME280;44751;52.236;5.178;2023-05-20T20:05:22;101978.16;;;17.44;88.57
58975;BME280;44751;52.236;5.178;2023-05-20T20:07:50;101979.19;;;17.42;88.46
58975;BME280;44751;52.236;5.178;2023-05-20T20:10:17;101986.03;;;17.32;89.05
58975;BME280;44751;52.236;5.178;2023-05-20T20:12:46;101979.94;;;17.29;90.01
58975;BME280;44751;52.236;5.178;2023-05-20T20:15:14;101983.50;;;17.30;90.33
58975;BME280;44751;52.236;5.178;2023-05-20T20:17:41;101989.84;;;17.37;89.87
58975;BME280;44751;52.236;5.178;2023-05-20T20:20:18;101988.31;;;17.28;90.15
58975;BME280;44751;52.236;5.178;2023-05-20T20:22:44;101987.78;;;17.17;90.48
58975;BME280;44751;52.236;5.178;2023-05-20T20:25:16;101985.88;;;17.11;91.24
58975;BME280;44751;52.236;5.178;2023-05-20T20:27:44;101986.63;;;17.05;91.48
58975;BME280;44751;52.236;5.178;2023-05-20T20:30:13;101994.69;;;17.13;91.66
58975;BME280;44751;52.236;5.178;2023-05-20T20:32:42;101991.94;;;17.13;91.71
58975;BME280;44751;52.236;5.178;2023-05-20T20:35:12;101983.34;;;17.10;90.90
58975;BME280;44751;52.236;5.178;2023-05-20T20:37:38;101990.38;;;17.04;91.66
58975;BME280;44751;52.236;5.178;2023-05-20T20:40:05;101983.72;;;17.07;91.49
58975;BME280;44751;52.236;5.178;2023-05-20T20:42:40;101994.16;;;17.03;92.34
58975;BME280;44751;52.236;5.178;2023-05-20T20:45:10;101996.66;;;17.04;92.04
58975;BME280;44751;52.236;5.178;2023-05-20T20:47:38;101991.31;;;16.96;92.66
58975;BME280;44751;52.236;5.178;2023-05-20T20:50:05;101986.47;;;16.91;92.74
58975;BME280;44751;52.236;5.178;2023-05-20T20:52:33;101987.97;;;16.94;93.06
58975;BME280;44751;52.236;5.178;2023-05-20T20:55:03;101979.44;;;16.82;93.14
58975;BME280;44751;52.236;5.178;2023-05-20T20:57:29;101980.03;;;16.77;93.70
58975;BME280;44751;52.236;5.178;2023-05-20T21:00:00;101988.34;;;16.69;93.57
58975;BME280;44751;52.236;5.178;2023-05-20T21:02:32;101986.09;;;16.58;95.19
58975;BME280;44751;52.236;5.178;2023-05-20T21:05:00;101976.16;;;16.50;95.73
58975;BME280;44751;52.236;5.178;2023-05-20T21:07:26;101976.25;;;16.57;95.05
58975;BME280;44751;52.236;5.178;2023-05-20T21:09:54;101976.44;;;16.55;95.84
58975;BME280;44751;52.236;5.178;2023-05-20T21:12:21;101987.72;;;16.52;96.31
58975;BME280;44751;52.236;5.178;2023-05-20T21:14:48;101984.53;;;16.48;96.76
58975;BME280;44751;52.236;5.178;2023-05-20T21:17:15;101981.59;;;16.50;97.09
58975;BME280;44751;52.236;5.178;2023-05-20T21:19:41;101977.69;;;16.52;97.41
58975;BME280;44751;52.236;5.178;2023-05-20T21:22:08;101975.59;;;16.55;97.52
58975;BME280;44751;52.236;5.178;2023-05-20T21:24:34;101974.09;;;16.52;98.43
58975;BME280;44751;52.236;5.178;2023-05-20T21:27:03;101971.69;;;16.42;98.90
58975;BME280;44751;52.236;5.178;2023-05-20T21:29:30;101967.09;;;16.43;99.33
58975;BME280;44751;52.236;5.178;2023-05-20T21:31:58;101968.50;;;16.38;99.36
58975;BME280;44751;52.236;5.178;2023-05-20T21:34:24;101975.81;;;16.38;99.36
58975;BME280;44751;52.236;5.178;2023-05-20T21:36:51;101980.88;;;16.41;99.15
58975;BME280;44751;52.236;5.178;2023-05-20T21:39:17;101980.03;;;16.41;100.00
58975;BME280;44751;52.236;5.178;2023-05-20T21:41:44;101967.50;;;16.24;100.00
58975;BME280;44751;52.236;5.178;2023-05-20T21:44:16;101961.44;;;16.29;100.00
58975;BME280;44751;52.236;5.178;2023-05-20T21:46:43;101969.44;;;16.31;100.00
58975;BME280;44751;52.236;5.178;2023-05-20T21:49:10;101970.84;;;16.26;100.00
58975;BME280;44751;52.236;5.178;2023-05-20T21:51:37;101958.47;;;16.24;100.00
58975;BME280;44751;52.236;5.178;2023-05-20T21:54:03;101966.25;;;16.12;100.00
58975;BME280;44751;52.236;5.178;2023-05-20T21:56:36;101953.19;;;16.22;100.00
58975;BME280;44751;52.236;5.178;2023-05-20T21:59:03;101950.09;;;16.25;100.00
58975;BME280;44751;52.236;5.178;2023-05-20T22:01:29;101945.88;;;16.23;100.00
58975;BME280;44751;52.236;5.178;2023-05-20T22:03:56;101941.56;;;16.13;100.00
58975;BME280;44751;52.236;5.178;2023-05-20T22:06:24;101941.13;;;16.10;100.00
58975;BME280;44751;52.236;5.178;2023-05-20T22:08:51;101939.50;;;16.16;100.00
58975;BME280;44751;52.236;5.178;2023-05-20T22:11:18;101941.38;;;16.15;100.00
58975;BME280;44751;52.236;5.178;2023-05-20T22:13:46;101936.75;;;16.31;100.00
58975;BME280;44751;52.236;5.178;2023-05-20T22:16:12;101932.66;;;16.20;100.00
58975;BME280;44751;52.236;5.178;2023-05-20T22:18:40;101925.72;;;16.17;100.00
58975;BME280;44751;52.236;5.178;2023-05-20T22:21:08;101918.78;;;16.15;100.00
58975;BME280;44751;52.236;5.178;2023-05-20T22:23:35;101918.94;;;16.28;100.00
58975;BME280;44751;52.236;5.178;2023-05-20T22:26:01;101923.91;;;16.24;100.00
58975;BME280;44751;52.236;5.178;2023-05-20T22:28:28;101918.47;;;16.24;100.00
58975;BME280;44751;52.236;5.178;2023-05-20T22:30:55;101914.53;;;16.12;100.00
58975;BME280;44751;52.236;5.178;2023-05-20T22:33:24;101902.34;;;16.08;100.00
58975;BME280;44751;52.236;5.178;2023-05-20T22:35:51;101910.13;;;16.11;100.00
58975;BME280;44751;52.236;5.178;2023-05-20T22:38:18;101911.72;;;16.20;100.00
58975;BME280;44751;52.236;5.178;2023-05-20T22:40:45;101899.78;;;16.21;100.00
58975;BME280;44751;52.236;5.178;2023-05-20T22:43:14;101906.34;;;16.27;100.00
58975;BME280;44751;52.236;5.178;2023-05-20T22:45:44;101902.31;;;16.23;100.00
58975;BME280;44751;52.236;5.178;2023-05-20T22:48:11;101909.34;;;16.32;100.00
58975;BME280;44751;52.236;5.178;2023-05-20T22:50:37;101905.31;;;16.28;100.00
58975;BME280;44751;52.236;5.178;2023-05-20T22:53:04;101906.06;;;16.22;100.00
58975;BME280;44751;52.236;5.178;2023-05-20T22:55:30;101906.28;;;16.05;100.00
58975;BME280;44751;52.236;5.178;2023-05-20T22:58:02;101895.41;;;16.05;100.00
58975;BME280;44751;52.236;5.178;2023-05-20T23:00:29;101900.47;;;16.08;100.00
58975;BME280;44751;52.236;5.178;2023-05-20T23:02:56;101898.72;;;16.00;100.00
58975;BME280;44751;52.236;5.178;2023-05-20T23:05:22;101901.44;;;16.00;100.00
58975;BME280;44751;52.236;5.178;2023-05-20T23:07:51;101910.13;;;16.11;100.00
58975;BME280;44751;52.236;5.178;2023-05-20T23:10:21;101895.75;;;16.17;100.00
58975;BME280;44751;52.236;5.178;2023-05-20T23:12:48;101890.03;;;16.12;100.00
58975;BME280;44751;52.236;5.178;2023-05-20T23:15:15;101892.84;;;16.04;100.00
58975;BME280;44751;52.236;5.178;2023-05-20T23:17:41;101886.97;;;16.00;100.00
58975;BME280;44751;52.236;5.178;2023-05-20T23:20:20;101891.44;;;15.93;100.00
58975;BME280;44751;52.236;5.178;2023-05-20T23:22:55;101879.72;;;15.92;100.00
58975;BME280;44751;52.236;5.178;2023-05-20T23:25:21;101892.47;;;15.92;100.00
58975;BME280;44751;52.236;5.178;2023-05-20T23:27:48;101895.88;;;15.79;100.00
58975;BME280;44751;52.236;5.178;2023-05-20T23:30:18;101885.66;;;15.96;100.00
58975;BME280;44751;52.236;5.178;2023-05-20T23:32:45;101886.59;;;15.88;100.00
58975;BME280;44751;52.236;5.178;2023-05-20T23:35:11;101885.53;;;15.89;100.00
58975;BME280;44751;52.236;5.178;2023-05-20T23:37:38;101879.25;;;15.88;100.00
58975;BME280;44751;52.236;5.178;2023-05-20T23:40:05;101875.41;;;15.83;100.00
58975;BME280;44751;52.236;5.178;2023-05-20T23:42:34;101877.31;;;15.82;100.00
58975;BME280;44751;52.236;5.178;2023-05-20T23:45:01;101869.22;;;15.89;100.00
58975;BME280;44751;52.236;5.178;2023-05-20T23:47:28;101879.44;;;15.87;100.00
58975;BME280;44751;52.236;5.178;2023-05-20T23:49:56;101869.59;;;15.86;100.00
58975;BME280;44751;52.236;5.178;2023-05-20T23:52:23;101868.19;;;15.90;100.00
58975;BME280;44751;52.236;5.178;2023-05-20T23:54:52;101866.50;;;15.89;100.00
58975;BME280;44751;52.236;5.178;2023-05-20T23:57:20;101868.09;;;15.83;100.00
58975;BME280;44751;52.236;5.178;2023-05-20T23:59:47;101868.56;;;15.87;100.00
